Time;durP1;ratioP1;P1;durP2;ratioP2;P2;SDS_P1;SDS_P2;PMS_P1;PMS_P2;Temp;Humidity;BMP_temperature;BMP_pressure;BME280_temperature;BME280_humidity;BME280_pressure;Samples;Min_cycle;Max_cycle;Signal;HPM_P1;HPM_P2
2022/09/10 00:01:24;;;;;;;13.63;10.18;;;;;;;22.31;80.50;94588.06;4970239;28;20613;-79
2022/09/10 00:03:53;;;;;;;13.38;10.32;;;;;;;22.35;80.91;94588.44;4989526;28;20189;-80
2022/09/10 00:06:21;;;;;;;13.55;9.30;;;;;;;22.33;81.38;94593.09;4990104;28;20217;-78
2022/09/10 00:08:48;;;;;;;15.57;10.60;;;;;;;22.31;81.48;94590.66;4989792;28;20190;-79
2022/09/10 00:11:15;;;;;;;15.65;10.73;;;;;;;22.29;81.49;94590.09;4990262;28;20288;-78
2022/09/10 00:13:43;;;;;;;12.80;10.20;;;;;;;21.70;81.36;94506.16;4972477;28;20193;-78
2022/09/10 00:16:13;;;;;;;14.43;10.30;;;;;;;22.15;81.26;94571.16;4989484;28;20596;-78
2022/09/10 00:18:41;;;;;;;17.88;9.95;;;;;;;22.30;82.00;94594.28;4989541;28;20205;-78
2022/09/10 00:21:11;;;;;;;12.43;10.45;;;;;;;22.29;81.86;94595.31;4989479;28;20232;-79
2022/09/10 00:23:38;;;;;;;12.20;9.50;;;;;;;22.31;81.61;94603.69;4989599;28;20199;-79
2022/09/10 00:26:13;;;;;;;14.35;8.82;;;;;;;22.25;81.43;94576.69;4989507;28;20198;-79
2022/09/10 00:28:40;;;;;;;16.33;10.00;;;;;;;22.23;81.93;94575.28;4989317;28;20189;-78
2022/09/10 00:31:07;;;;;;;17.73;10.38;;;;;;;22.35;81.62;94591.03;4989673;28;20204;-78
2022/09/10 00:33:35;;;;;;;11.77;10.07;;;;;;;22.33;81.92;94593.88;4993169;28;20193;-79
2022/09/10 00:36:04;;;;;;;18.00;11.73;;;;;;;22.26;82.18;94590.50;4992711;28;20197;-78
2022/09/10 00:38:32;;;;;;;14.68;10.63;;;;;;;22.32;81.49;94594.84;4993088;28;20244;-78
2022/09/10 00:41:04;;;;;;;16.63;11.43;;;;;;;22.17;81.20;94571.75;4992615;28;20256;-77
2022/09/10 00:43:48;;;;;;;12.73;10.27;;;;;;;22.35;81.16;94598.88;4992796;28;20224;-78
2022/09/10 00:46:20;;;;;;;13.13;10.27;;;;;;;22.36;81.52;94597.84;4992996;28;20212;-78
2022/09/10 00:48:48;;;;;;;12.95;10.02;;;;;;;22.33;82.06;94593.88;4992921;28;20200;-79
2022/09/10 00:51:15;;;;;;;12.60;9.52;;;;;;;22.33;81.96;94599.09;4992480;28;20215;-78
2022/09/10 00:53:43;;;;;;;12.25;9.55;;;;;;;22.32;82.33;94594.84;4992601;28;20197;-79
2022/09/10 00:56:10;;;;;;;13.95;9.73;;;;;;;22.31;82.43;94587.25;4992514;28;20209;-78
2022/09/10 00:58:37;;;;;;;12.05;9.95;;;;;;;22.33;82.59;94590.47;4993195;28;20628;-78
2022/09/10 01:01:04;;;;;;;14.98;10.68;;;;;;;22.39;81.82;94587.00;4992421;28;20216;-77
2022/09/10 01:03:32;;;;;;;15.10;10.55;;;;;;;22.14;81.72;94556.53;4992739;28;20304;-78
2022/09/10 01:06:02;;;;;;;13.75;9.88;;;;;;;22.33;82.10;94586.06;4993020;28;20907;-77
2022/09/10 01:08:28;;;;;;;12.73;9.98;;;;;;;22.39;81.67;94581.78;4993441;28;20185;-78
2022/09/10 01:11:08;;;;;;;15.82;10.30;;;;;;;22.41;81.69;94588.41;4992346;28;20194;-78
2022/09/10 01:13:45;;;;;;;17.88;9.75;;;;;;;22.42;81.49;94584.78;4992577;28;20196;-78
2022/09/10 01:16:22;;;;;;;12.95;9.73;;;;;;;22.18;81.74;94549.88;4991981;28;20724;-78
2022/09/10 01:18:58;;;;;;;22.88;9.98;;;;;;;22.41;81.85;94585.78;4992794;28;20185;-78
2022/09/10 01:21:32;;;;;;;13.43;9.88;;;;;;;22.42;81.71;94574.34;4991862;28;20217;-77
2022/09/10 01:24:19;;;;;;;12.98;10.25;;;;;;;22.30;81.73;94555.22;4992293;28;20192;-78
2022/09/10 01:27:24;;;;;;;13.23;9.65;;;;;;;22.26;81.52;94554.03;4992065;28;20645;-78
2022/09/10 01:29:59;;;;;;;13.25;9.73;;;;;;;22.35;81.98;94557.97;4931295;28;20191;-79
2022/09/10 01:32:33;;;;;;;13.43;9.27;;;;;;;22.34;82.44;94563.41;4932244;29;20236;-78
2022/09/10 01:35:07;;;;;;;10.95;9.23;;;;;;;22.36;82.17;94561.38;4931844;29;20199;-78
2022/09/10 01:37:38;;;;;;;11.77;9.20;;;;;;;22.32;82.69;94560.19;4931906;29;20195;-77
2022/09/10 01:40:06;;;;;;;10.85;9.73;;;;;;;22.31;82.74;94564.63;4931848;29;20274;-79
2022/09/10 01:42:33;;;;;;;11.80;8.90;;;;;;;22.31;82.83;94558.59;4931341;29;20242;-77
2022/09/10 01:45:01;;;;;;;13.45;9.43;;;;;;;22.27;82.80;94556.41;4932147;29;20202;-79
2022/09/10 01:47:52;;;;;;;16.23;9.98;;;;;;;22.27;82.99;94558.22;4932019;29;20199;-78
2022/09/10 01:50:28;;;;;;;13.57;9.10;;;;;;;22.16;82.63;94538.91;4931780;29;20195;-78
2022/09/10 01:53:14;;;;;;;12.48;9.60;;;;;;;22.24;82.47;94567.28;4931602;29;20257;-78
2022/09/10 01:55:49;;;;;;;13.15;9.60;;;;;;;22.31;82.72;94569.81;4931484;29;20195;-78
2022/09/10 01:58:25;;;;;;;17.45;10.02;;;;;;;22.31;82.43;94569.81;4931602;29;20191;-78
2022/09/10 02:01:06;;;;;;;19.33;9.73;;;;;;;22.28;82.73;94578.09;4931672;29;20199;-77
2022/09/10 02:03:35;;;;;;;10.95;9.30;;;;;;;22.31;82.65;94589.88;4931767;29;20291;-78
2022/09/10 02:06:06;;;;;;;14.25;10.02;;;;;;;22.25;83.06;94578.50;4947982;28;20217;-78
2022/09/10 02:08:36;;;;;;;15.18;10.00;;;;;;;22.24;82.98;94582.13;4991608;28;20645;-78
2022/09/10 02:11:05;;;;;;;10.75;9.63;;;;;;;22.33;82.55;94582.66;4991784;28;20220;-78
2022/09/10 02:13:34;;;;;;;11.52;9.80;;;;;;;22.28;82.53;94581.47;4991846;28;20212;-78
2022/09/10 02:16:05;;;;;;;11.73;10.05;;;;;;;22.27;82.36;94576.47;4991534;28;20291;-78
2022/09/10 02:18:32;;;;;;;12.85;10.07;;;;;;;22.27;82.53;94579.88;4991335;28;20216;-78
2022/09/10 02:21:01;;;;;;;16.35;10.77;;;;;;;22.24;82.99;94576.91;4991391;28;20193;-77
2022/09/10 02:23:34;;;;;;;15.13;10.23;;;;;;;22.16;82.71;94564.16;4991486;28;20188;-77
2022/09/10 02:26:01;;;;;;;18.83;10.00;;;;;;;22.19;82.89;94568.91;4991104;28;20189;-78
2022/09/10 02:28:29;;;;;;;12.80;9.80;;;;;;;22.22;82.70;94571.09;4991043;28;20240;-77
2022/09/10 02:30:55;;;;;;;10.30;9.07;;;;;;;22.28;82.62;94570.28;4990865;28;20197;-79
2022/09/10 02:33:24;;;;;;;15.50;9.50;;;;;;;22.23;82.19;94564.88;4991028;28;20189;-78
2022/09/10 02:35:52;;;;;;;13.77;9.25;;;;;;;22.29;82.55;94575.25;4991085;28;20193;-80
2022/09/10 02:38:20;;;;;;;15.25;8.73;;;;;;;22.31;82.21;94582.06;4990426;28;20276;-79
2022/09/10 02:40:47;;;;;;;10.02;8.82;;;;;;;22.31;82.44;94582.06;4990827;28;20661;-77
2022/09/10 02:43:15;;;;;;;13.75;9.32;;;;;;;22.24;82.73;94582.13;4990498;28;20237;-79
2022/09/10 02:45:41;;;;;;;12.60;9.30;;;;;;;22.01;83.05;94551.38;4990805;28;20197;-79
2022/09/10 02:48:08;;;;;;;12.45;9.43;;;;;;;22.16;83.29;94582.38;4990585;28;20197;-78
2022/09/10 02:50:36;;;;;;;13.20;9.23;;;;;;;22.12;83.43;94578.56;4990840;28;20197;-78
2022/09/10 02:53:03;;;;;;;11.43;8.80;;;;;;;22.14;83.49;94585.19;4990071;28;20648;-78
2022/09/10 02:55:30;;;;;;;11.80;9.13;;;;;;;22.25;82.76;94586.31;4990008;28;20648;-77
2022/09/10 02:57:57;;;;;;;18.65;9.35;;;;;;;22.22;82.92;94589.34;4990150;28;20185;-77
2022/09/10 03:00:24;;;;;;;14.40;8.23;;;;;;;22.04;82.69;94559.59;4990293;28;20260;-79
2022/09/10 03:02:55;;;;;;;14.68;8.65;;;;;;;22.14;83.17;94587.00;4990201;28;20251;-77
2022/09/10 03:05:22;;;;;;;14.07;9.00;;;;;;;22.10;83.50;94580.56;4990634;28;20193;-78
2022/09/10 03:07:50;;;;;;;12.27;9.43;;;;;;;22.01;83.78;94580.03;4990379;28;20202;-78
2022/09/10 03:10:17;;;;;;;11.80;8.07;;;;;;;21.92;83.86;94561.25;4990681;28;20194;-78
2022/09/10 03:12:44;;;;;;;10.02;8.15;;;;;;;21.92;84.04;94568.28;4990463;28;20189;-78
2022/09/10 03:15:11;;;;;;;10.18;8.38;;;;;;;22.01;84.00;94580.03;4989953;28;20232;-78
2022/09/10 03:17:38;;;;;;;10.98;8.68;;;;;;;21.71;84.01;94532.97;4990048;28;20185;-78
2022/09/10 03:20:06;;;;;;;16.08;9.60;;;;;;;22.02;84.52;94586.84;4990376;28;20200;-77
2022/09/10 03:22:33;;;;;;;16.23;9.65;;;;;;;21.93;84.64;94570.66;4990131;28;20247;-78
2022/09/10 03:25:01;;;;;;;10.63;8.88;;;;;;;21.99;85.03;94577.66;4990144;28;20193;-78
2022/09/10 03:27:28;;;;;;;11.40;8.60;;;;;;;22.01;84.88;94577.44;4990507;28;20648;-78
2022/09/10 03:29:55;;;;;;;12.48;8.38;;;;;;;21.91;84.78;94562.28;4990255;28;20189;-78
2022/09/10 03:32:22;;;;;;;11.23;8.98;;;;;;;21.94;85.05;94563.69;4990691;28;20189;-78
2022/09/10 03:34:49;;;;;;;15.43;8.55;;;;;;;21.94;85.27;94566.28;4990599;28;20206;-78
2022/09/10 03:37:16;;;;;;;16.13;9.70;;;;;;;21.93;85.67;94567.28;4990255;28;20232;-78
2022/09/10 03:39:43;;;;;;;9.80;8.80;;;;;;;21.90;85.60;94562.50;4990386;28;20553;-79
2022/09/10 03:42:11;;;;;;;12.13;8.70;;;;;;;21.81;84.92;94540.34;4992555;28;20235;-79
2022/09/10 03:44:38;;;;;;;10.15;8.02;;;;;;;21.86;84.37;94546.50;4996342;28;20181;-78
2022/09/10 03:47:05;;;;;;;13.02;8.70;;;;;;;21.75;84.02;94528.94;5012008;28;20203;-78
2022/09/10 03:49:32;;;;;;;12.18;8.70;;;;;;;21.95;84.24;94554.84;5003349;28;20189;-79
2022/09/10 03:51:59;;;;;;;13.18;8.45;;;;;;;21.89;84.35;94540.06;5005276;28;20581;-79
2022/09/10 03:54:26;;;;;;;10.90;9.63;;;;;;;21.92;84.51;94544.84;5002372;28;20204;-79
2022/09/10 03:57:01;;;;;;;15.52;8.27;;;;;;;21.97;83.76;94551.00;4999521;28;20191;-79
2022/09/10 03:59:30;;;;;;;14.73;8.48;;;;;;;21.88;83.66;94534.06;4990274;28;20692;-78
2022/09/10 04:01:57;;;;;;;15.07;8.65;;;;;;;22.02;83.92;94551.19;4973504;28;20287;-77
2022/09/10 04:04:24;;;;;;;17.55;8.50;;;;;;;21.99;83.65;94561.22;4990472;28;20197;-77
2022/09/10 04:06:52;;;;;;;19.92;9.45;;;;;;;21.97;83.82;94558.81;4993223;28;20197;-78
2022/09/10 04:09:19;;;;;;;13.57;8.80;;;;;;;21.96;84.03;94556.44;4993152;28;20639;-78
2022/09/10 04:11:46;;;;;;;17.70;8.88;;;;;;;21.91;84.46;94551.88;4993179;28;20200;-79
2022/09/10 04:14:14;;;;;;;13.30;7.97;;;;;;;21.76;84.69;94531.34;4993540;28;20193;-77
2022/09/10 04:16:42;;;;;;;15.15;9.30;;;;;;;21.94;84.73;94556.66;4992885;28;20644;-77
2022/09/10 04:19:09;;;;;;;10.73;9.02;;;;;;;21.97;84.71;94569.25;4993453;28;20526;-78
2022/09/10 04:21:36;;;;;;;10.25;8.80;;;;;;;21.70;84.88;94539.19;4993507;28;20196;-78
2022/09/10 04:24:03;;;;;;;14.50;8.77;;;;;;;21.93;85.00;94572.47;4993163;28;20669;-79
2022/09/10 04:26:30;;;;;;;13.43;8.60;;;;;;;21.92;85.11;94589.13;4993089;28;20216;-78
2022/09/10 04:28:57;;;;;;;12.57;9.23;;;;;;;21.93;85.10;94593.31;4993339;28;20193;-78
2022/09/10 04:31:23;;;;;;;15.10;9.10;;;;;;;21.75;84.88;94566.19;4993382;28;20241;-79
2022/09/10 04:33:52;;;;;;;17.25;9.52;;;;;;;21.77;84.54;94550.38;4992123;28;20615;-77
2022/09/10 04:36:19;;;;;;;16.75;9.73;;;;;;;22.02;84.58;94592.03;4993079;28;20287;-79
2022/09/10 04:38:46;;;;;;;10.98;8.80;;;;;;;22.04;84.05;94577.03;4992180;28;20201;-79
2022/09/10 04:41:14;;;;;;;12.30;9.32;;;;;;;22.07;84.29;94578.41;4992818;28;20291;-79
2022/09/10 04:43:42;;;;;;;9.70;8.68;;;;;;;21.53;84.36;94503.25;4993503;28;20212;-79
2022/09/10 04:46:09;;;;;;;16.70;8.77;;;;;;;21.99;84.17;94574.25;4993897;28;20276;-78
2022/09/10 04:48:36;;;;;;;13.88;8.82;;;;;;;21.71;84.81;94538.97;4993285;28;20683;-79
2022/09/10 04:51:05;;;;;;;12.82;8.60;;;;;;;21.88;85.20;94557.50;4995246;28;20208;-77
2022/09/10 04:53:33;;;;;;;13.10;9.40;;;;;;;21.90;85.39;94557.28;4995306;28;20189;-79
2022/09/10 04:56:01;;;;;;;10.02;9.07;;;;;;;21.70;84.84;94529.56;4996797;28;20561;-78
2022/09/10 04:58:27;;;;;;;11.93;8.70;;;;;;;21.83;85.15;94540.91;4996036;28;20565;-78
2022/09/10 05:00:55;;;;;;;17.85;9.15;;;;;;;21.86;85.94;94553.53;4996427;28;20554;-77
2022/09/10 05:03:23;;;;;;;13.35;8.82;;;;;;;21.82;87.14;94545.31;4995487;28;20216;-77
2022/09/10 05:05:50;;;;;;;13.32;10.13;;;;;;;21.89;87.33;94560.88;4993048;28;20201;-79
2022/09/10 05:08:18;;;;;;;12.63;9.30;;;;;;;21.92;86.93;94557.88;4992491;28;20189;-79
2022/09/10 05:10:45;;;;;;;14.45;9.07;;;;;;;21.77;87.45;94537.34;4992949;28;20188;-79
2022/09/10 05:13:11;;;;;;;11.93;8.52;;;;;;;21.97;87.32;94568.44;4992672;28;20284;-77
2022/09/10 05:15:40;;;;;;;12.93;9.02;;;;;;;21.78;86.55;94526.72;4992254;28;20228;-77
2022/09/10 05:18:07;;;;;;;10.15;9.15;;;;;;;21.99;86.77;94561.22;4992156;28;20270;-78
2022/09/10 05:20:35;;;;;;;16.33;10.77;;;;;;;21.95;87.09;94549.66;4991933;28;20287;-78
2022/09/10 05:23:02;;;;;;;15.40;10.38;;;;;;;21.73;87.12;94531.75;4992058;28;20229;-77
2022/09/10 05:25:30;;;;;;;11.43;9.80;;;;;;;22.15;86.13;94578.16;4992346;28;20228;-79
2022/09/10 05:27:59;;;;;;;13.80;9.82;;;;;;;21.93;86.22;94562.84;4992407;28;20189;-78
2022/09/10 05:30:31;;;;;;;13.82;9.32;;;;;;;21.96;86.04;94567.66;4992216;28;20204;-77
2022/09/10 05:32:58;;;;;;;17.50;10.40;;;;;;;21.98;85.79;94578.66;4992250;28;20232;-79
2022/09/10 05:35:25;;;;;;;14.95;10.10;;;;;;;21.98;86.23;94583.88;4992294;28;20208;-77
2022/09/10 05:37:52;;;;;;;15.13;9.73;;;;;;;21.95;85.79;94586.91;4991975;28;20220;-79
2022/09/10 05:40:20;;;;;;;13.00;10.20;;;;;;;21.67;86.49;94550.81;4992203;28;20193;-78
2022/09/10 05:42:48;;;;;;;11.63;8.75;;;;;;;21.91;86.26;94584.94;4992367;28;20213;-79
2022/09/10 05:45:17;;;;;;;13.88;10.93;;;;;;;21.47;86.12;94517.13;4991980;28;20281;-77
2022/09/10 05:47:44;;;;;;;19.40;10.32;;;;;;;21.97;85.76;94577.06;4992014;28;20279;-79
2022/09/10 05:50:11;;;;;;;12.43;9.80;;;;;;;22.01;85.92;94585.25;4991711;28;20204;-79
2022/09/10 05:52:38;;;;;;;21.55;10.10;;;;;;;22.02;85.64;94572.03;4991605;28;20200;-78
2022/09/10 05:55:05;;;;;;;12.23;9.23;;;;;;;22.18;85.86;94577.75;4991852;28;20193;-79
2022/09/10 05:57:33;;;;;;;13.75;9.43;;;;;;;22.34;85.57;94579.81;4992029;28;20193;-79
2022/09/10 06:00:02;;;;;;;13.10;9.50;;;;;;;22.48;84.70;94573.47;4991574;28;20201;-79
2022/09/10 06:02:29;;;;;;;16.10;9.68;;;;;;;22.74;83.96;94582.06;4991675;28;20232;-78
2022/09/10 06:04:56;;;;;;;16.35;10.65;;;;;;;22.88;82.28;94575.69;4992421;28;20211;-78
2022/09/10 06:07:24;;;;;;;14.82;10.43;;;;;;;22.99;82.08;94574.22;4992074;28;20267;-79
2022/09/10 06:09:50;;;;;;;16.88;10.55;;;;;;;23.17;81.62;94576.03;4991576;28;20185;-79
2022/09/10 06:12:17;;;;;;;15.23;11.25;;;;;;;23.22;80.18;94579.56;4991857;28;20193;-80
2022/09/10 06:14:44;;;;;;;18.20;9.93;;;;;;;23.36;80.35;94580.22;4991585;28;20193;-78
2022/09/10 06:17:12;;;;;;;17.67;10.40;;;;;;;23.41;79.82;94592.63;4991074;28;20551;-78
2022/09/10 06:19:39;;;;;;;22.70;11.00;;;;;;;23.46;79.19;94590.94;4991773;28;20197;-79
2022/09/10 06:22:09;;;;;;;13.60;10.55;;;;;;;23.54;78.83;94588.03;4991298;28;20200;-79
2022/09/10 06:24:36;;;;;;;20.48;10.65;;;;;;;23.63;78.69;94578.06;4991842;28;20224;-78
2022/09/10 06:27:04;;;;;;;12.45;10.20;;;;;;;23.74;78.36;94579.16;4991543;28;20286;-78
2022/09/10 06:29:31;;;;;;;13.02;10.63;;;;;;;23.81;77.93;94579.06;4991577;28;20193;-78
2022/09/10 06:31:59;;;;;;;12.73;10.63;;;;;;;23.83;78.05;94574.41;4991793;28;20657;-78
2022/09/10 06:34:27;;;;;;;13.93;10.93;;;;;;;23.86;78.01;94587.84;4991337;28;20236;-79
2022/09/10 06:36:56;;;;;;;14.10;11.18;;;;;;;23.94;77.49;94591.94;4990878;28;20204;-78
2022/09/10 06:39:22;;;;;;;22.10;12.60;;;;;;;23.65;76.69;94549.16;4991776;28;20548;-78
2022/09/10 06:41:49;;;;;;;19.10;12.23;;;;;;;23.96;76.24;94588.09;4992501;28;20185;-78
2022/09/10 06:44:17;;;;;;;14.90;11.38;;;;;;;23.96;76.32;94582.06;4991315;28;20516;-78
2022/09/10 06:46:44;;;;;;;16.05;11.23;;;;;;;23.92;76.93;94586.97;4991802;28;20260;-79
2022/09/10 06:49:11;;;;;;;15.32;10.00;;;;;;;23.93;76.91;94570.25;4991881;28;20567;-78
2022/09/10 06:51:40;;;;;;;17.63;12.15;;;;;;;24.08;77.35;94569.03;4992072;28;20196;-78
2022/09/10 06:54:07;;;;;;;13.88;11.02;;;;;;;24.14;76.92;94574.16;4991903;28;20197;-79
2022/09/10 06:56:34;;;;;;;15.23;10.77;;;;;;;24.31;76.93;94573.50;4991938;28;20228;-78
2022/09/10 06:59:01;;;;;;;17.98;10.63;;;;;;;24.42;77.05;94570.94;4991022;28;20196;-78
2022/09/10 07:01:28;;;;;;;12.52;11.00;;;;;;;24.63;75.25;94572.19;4990971;28;20205;-78
2022/09/10 07:03:56;;;;;;;14.70;10.35;;;;;;;24.75;73.82;94575.59;4990545;28;20232;-77
2022/09/10 07:06:24;;;;;;;11.73;10.02;;;;;;;24.93;73.73;94573.88;4991197;28;20189;-78
2022/09/10 07:08:56;;;;;;;12.98;11.18;;;;;;;25.18;72.82;94576.25;4990871;28;20630;-78
2022/09/10 07:11:24;;;;;;;15.50;10.10;;;;;;;25.44;72.22;94577.56;4991204;28;20688;-78
2022/09/10 07:13:53;;;;;;;17.50;10.65;;;;;;;25.70;70.93;94586.69;4991405;28;20208;-78
2022/09/10 07:16:20;;;;;;;14.73;9.98;;;;;;;25.91;70.54;94580.03;4990934;28;20235;-77
2022/09/10 07:18:48;;;;;;;17.80;10.05;;;;;;;25.92;69.48;94550.16;4990698;28;20205;-79
2022/09/10 07:21:16;;;;;;;13.18;10.35;;;;;;;26.23;68.16;94577.66;4990495;28;20193;-78
2022/09/10 07:23:44;;;;;;;11.80;10.45;;;;;;;26.41;67.14;94580.03;4990543;28;20208;-78
2022/09/10 07:26:13;;;;;;;13.02;9.82;;;;;;;26.54;66.38;94571.06;4993111;28;20224;-79
2022/09/10 07:28:42;;;;;;;19.52;10.70;;;;;;;26.69;65.84;94573.16;4994538;28;20238;-78
2022/09/10 07:31:13;;;;;;;13.10;10.02;;;;;;;26.81;65.20;94575.66;4990962;28;20185;-78
2022/09/10 07:33:40;;;;;;;13.60;9.90;;;;;;;26.63;63.86;94522.41;4990692;28;20570;-78
2022/09/10 07:36:08;;;;;;;13.52;9.35;;;;;;;27.16;63.96;94588.47;4989934;28;20197;-78
2022/09/10 07:38:35;;;;;;;14.90;9.27;;;;;;;27.30;63.98;94581.06;4990786;28;20670;-79
2022/09/10 07:41:03;;;;;;;14.73;8.85;;;;;;;27.48;61.51;94589.41;4993111;28;20189;-77
2022/09/10 07:43:31;;;;;;;11.98;8.48;;;;;;;27.65;59.90;94593.81;4994926;28;20232;-77
2022/09/10 07:45:58;;;;;;;14.55;9.07;;;;;;;27.68;60.83;94588.84;4994763;28;20212;-78
2022/09/10 07:48:26;;;;;;;13.25;8.75;;;;;;;27.69;61.17;94597.53;4994749;28;20192;-81
2022/09/10 07:50:53;;;;;;;11.63;7.50;;;;;;;27.78;61.42;94598.69;4994139;28;20220;-78
2022/09/10 07:53:19;;;;;;;16.23;8.80;;;;;;;27.82;60.92;94591.91;4976952;28;20611;-79
2022/09/10 07:55:46;;;;;;;11.85;8.88;;;;;;;27.84;60.66;94591.66;4993970;28;20619;-79
2022/09/10 07:58:14;;;;;;;11.60;8.38;;;;;;;27.87;60.45;94589.31;4994320;28;20191;-79
2022/09/10 08:00:42;;;;;;;8.88;8.02;;;;;;;27.93;59.81;94590.94;4994517;28;20189;-78
2022/09/10 08:03:11;;;;;;;12.20;9.25;;;;;;;27.96;59.40;94589.66;4994090;28;20236;-78
2022/09/10 08:05:38;;;;;;;10.55;8.90;;;;;;;27.90;58.82;94569.66;4993442;28;20193;-78
2022/09/10 08:08:05;;;;;;;10.38;8.70;;;;;;;27.95;58.97;94575.75;4994006;28;20193;-78
2022/09/10 08:10:32;;;;;;;13.75;9.38;;;;;;;28.02;59.70;94591.28;4994483;28;20189;-77
2022/09/10 08:12:59;;;;;;;13.10;8.20;;;;;;;28.07;59.36;94596.63;4994114;28;20193;-78
2022/09/10 08:15:25;;;;;;;13.30;8.77;;;;;;;28.15;58.65;94593.53;4986284;28;20256;-78
2022/09/10 08:17:54;;;;;;;9.82;8.35;;;;;;;28.20;59.51;94588.31;4975012;28;20198;-78
2022/09/10 08:20:24;;;;;;;11.05;8.25;;;;;;;28.09;59.53;94549.03;4975222;28;20200;-78
2022/09/10 08:22:50;;;;;;;10.93;8.65;;;;;;;28.40;58.59;94574.56;4974553;28;20197;-78
2022/09/10 08:25:19;;;;;;;15.80;9.20;;;;;;;28.53;58.74;94572.53;4974446;28;20242;-78
2022/09/10 08:27:46;;;;;;;16.15;9.45;;;;;;;28.55;58.22;94552.84;4974356;28;20265;-77
2022/09/10 08:30:14;;;;;;;12.07;7.32;;;;;;;27.37;57.27;94353.94;4973592;28;20213;-79
2022/09/10 08:32:42;;;;;;;10.65;8.10;;;;;;;28.73;58.23;94565.59;4955877;28;20205;-77
2022/09/10 08:35:10;;;;;;;10.50;7.85;;;;;;;28.83;56.82;94569.31;4973902;28;20192;-78
2022/09/10 08:37:36;;;;;;;12.20;8.13;;;;;;;28.83;57.61;94558.78;4973824;28;20216;-78
2022/09/10 08:40:05;;;;;;;10.70;7.88;;;;;;;28.73;57.58;94555.06;4974201;28;20287;-77
2022/09/10 08:42:38;;;;;;;15.02;9.38;;;;;;;28.81;57.55;94566.16;4974586;28;20285;-78
2022/09/10 08:45:09;;;;;;;12.90;8.52;;;;;;;28.74;58.12;94553.22;4974858;28;20214;-78
2022/09/10 08:47:48;;;;;;;11.00;8.73;;;;;;;28.77;57.59;94562.44;4974175;28;20190;-78
2022/09/10 08:50:29;;;;;;;13.63;8.27;;;;;;;28.72;57.17;94550.06;4973956;28;20305;-79
2022/09/10 08:53:04;;;;;;;9.52;7.97;;;;;;;28.78;57.18;94564.81;4973075;28;20224;-77
2022/09/10 08:55:34;;;;;;;14.35;10.05;;;;;;;28.45;57.28;94547.50;4974544;28;20268;-77
2022/09/10 08:58:10;;;;;;;11.80;9.38;;;;;;;28.40;57.77;94564.03;4974324;28;20582;-79
2022/09/10 09:00:39;;;;;;;14.40;8.77;;;;;;;28.29;58.15;94569.47;4974048;28;20288;-79
2022/09/10 09:03:14;;;;;;;11.65;8.60;;;;;;;28.05;57.76;94514.56;4973611;28;20197;-78
2022/09/10 09:05:48;;;;;;;10.80;8.90;;;;;;;28.33;57.92;94560.81;4974350;28;20676;-78
2022/09/10 09:08:19;;;;;;;12.07;8.43;;;;;;;28.32;58.45;94561.03;4974363;28;20589;-77
2022/09/10 09:10:49;;;;;;;16.65;10.02;;;;;;;28.21;58.36;94545.19;4973753;28;20297;-79
2022/09/10 09:13:46;;;;;;;10.32;7.60;;;;;;;28.26;58.60;94545.22;4974095;28;20186;-77
2022/09/10 09:16:34;;;;;;;12.40;8.48;;;;;;;28.25;58.63;94542.88;4972823;28;20229;-76
2022/09/10 09:19:13;;;;;;;13.18;8.98;;;;;;;28.31;58.66;94548.94;4973197;28;20630;-76
2022/09/10 09:21:50;;;;;;;18.55;8.48;;;;;;;28.26;58.17;94531.28;4972766;28;20640;-77
2022/09/10 09:24:23;;;;;;;13.63;8.98;;;;;;;28.23;58.18;94521.25;4973051;28;20316;-78
2022/09/10 09:26:51;;;;;;;14.57;8.65;;;;;;;28.31;58.15;94530.53;4973579;28;20241;-79
2022/09/10 09:29:22;;;;;;;16.67;9.15;;;;;;;28.21;58.70;94529.41;4973615;28;20191;-77
2022/09/10 09:31:55;;;;;;;12.50;8.57;;;;;;;28.20;58.33;94514.69;4981017;28;20253;-78
2022/09/10 09:34:28;;;;;;;13.50;8.02;;;;;;;28.23;58.11;94513.38;4983693;28;20182;-78
2022/09/10 09:37:02;;;;;;;19.88;9.23;;;;;;;28.05;57.96;94482.22;4983069;28;20665;-78
2022/09/10 09:39:35;;;;;;;16.30;8.48;;;;;;;28.19;57.99;94507.81;4992102;28;20249;-79
2022/09/10 09:42:11;;;;;;;11.40;7.90;;;;;;;28.14;58.62;94501.75;4986804;28;20208;-79
2022/09/10 09:44:45;;;;;;;15.73;8.45;;;;;;;28.06;58.23;94484.59;4975270;28;20223;-77
2022/09/10 09:47:12;;;;;;;18.35;8.98;;;;;;;28.11;58.43;94495.16;4986095;28;20684;-77
2022/09/10 09:49:39;;;;;;;13.23;8.48;;;;;;;28.13;58.31;94489.63;4991838;28;20648;-78
2022/09/10 09:52:19;;;;;;;19.08;9.32;;;;;;;28.16;58.35;94484.69;4992135;28;20192;-78
2022/09/10 09:54:52;;;;;;;12.40;8.07;;;;;;;28.08;58.21;94472.00;4992276;28;20580;-77
2022/09/10 09:57:20;;;;;;;18.42;9.07;;;;;;;28.24;58.24;94476.31;4992267;28;20200;-78
2022/09/10 09:59:48;;;;;;;13.10;7.90;;;;;;;28.34;57.85;94477.44;4991460;28;20197;-78
2022/09/10 10:02:19;;;;;;;13.70;8.82;;;;;;;28.36;58.03;94473.50;4992473;28;20657;-78
2022/09/10 10:05:08;;;;;;;14.45;8.35;;;;;;;28.42;57.21;94464.63;4991623;28;20229;-78
2022/09/10 10:07:36;;;;;;;12.32;7.88;;;;;;;28.45;57.14;94455.41;4992072;28;20197;-79
2022/09/10 10:10:06;;;;;;;11.88;8.18;;;;;;;28.39;57.43;94449.34;4991351;28;20193;-78
2022/09/10 10:12:33;;;;;;;9.38;8.40;;;;;;;28.49;57.59;94459.91;4991696;28;20377;-78
2022/09/10 10:15:02;;;;;;;18.17;8.57;;;;;;;28.40;57.78;94443.03;4994896;28;20243;-78
2022/09/10 10:17:35;;;;;;;8.85;7.40;;;;;;;28.49;57.46;94440.69;5012867;28;20208;-77
2022/09/10 10:20:07;;;;;;;12.98;7.72;;;;;;;28.52;57.55;94439.41;5011704;28;20192;-78
2022/09/10 10:22:36;;;;;;;16.70;8.10;;;;;;;28.41;56.88;94404.34;4994645;28;20199;-78
2022/09/10 10:25:06;;;;;;;13.55;8.13;;;;;;;28.60;56.56;94439.72;5032951;28;20235;-77
2022/09/10 10:27:36;;;;;;;14.32;7.57;;;;;;;28.62;56.49;94432.34;5034873;28;20193;-78
2022/09/10 10:30:07;;;;;;;16.23;7.25;;;;;;;28.68;57.43;94430.53;5033707;28;20188;-78
2022/09/10 10:32:46;;;;;;;11.65;8.25;;;;;;;28.69;57.73;94416.31;5023978;28;20625;-77
2022/09/10 10:35:33;;;;;;;11.25;8.02;;;;;;;28.74;57.01;94416.34;5022354;28;20203;-76
2022/09/10 10:38:30;;;;;;;15.50;8.35;;;;;;;28.85;56.24;94409.28;5011346;28;20212;-78
2022/09/10 10:41:50;;;;;;;11.35;7.93;;;;;;;28.89;56.69;94418.25;4913887;29;20291;-78
2022/09/10 10:44:44;;;;;;;13.80;8.55;;;;;;;28.96;56.18;94424.06;4856685;29;20261;-78
2022/09/10 10:47:28;;;;;;;12.23;7.35;;;;;;;28.96;55.09;94408.28;4856333;29;20190;-77
2022/09/10 10:50:07;;;;;;;13.25;6.85;;;;;;;29.10;54.67;94411.19;4858986;29;20194;-77
2022/09/10 10:52:46;;;;;;;12.68;6.75;;;;;;;29.08;54.94;94403.56;4857354;29;20245;-78
2022/09/10 10:55:22;;;;;;;14.88;8.02;;;;;;;29.13;54.28;94405.41;4856494;29;20198;-77
2022/09/10 10:58:19;;;;;;;10.68;6.22;;;;;;;29.20;53.70;94401.50;4855953;29;20201;-77
2022/09/10 11:00:52;;;;;;;13.10;7.10;;;;;;;29.18;53.65;94384.34;4855725;29;20197;-78
2022/09/10 11:03:26;;;;;;;7.75;6.82;;;;;;;29.25;53.94;94395.44;4855188;29;20196;-78
2022/09/10 11:05:59;;;;;;;12.52;5.88;;;;;;;29.24;53.61;94388.59;4855684;29;20236;-77
2022/09/10 11:08:32;;;;;;;15.85;6.72;;;;;;;29.25;53.90;94390.97;4855192;29;20690;-79
2022/09/10 11:11:05;;;;;;;11.88;6.22;;;;;;;29.21;53.39;94410.97;4855041;29;20862;-78
2022/09/10 11:13:38;;;;;;;15.68;6.28;;;;;;;29.11;54.06;94418.88;4854914;29;20297;-77
2022/09/10 11:16:10;;;;;;;21.95;6.38;;;;;;;29.02;55.78;94425.69;4842501;29;20842;-78
2022/09/10 11:18:45;;;;;;;20.77;5.15;;;;;;;29.03;56.94;94485.19;4927764;29;20581;-77
2022/09/10 11:21:18;;;;;;;13.77;4.75;;;;;;;28.83;60.01;94493.75;4967512;28;20201;-77
2022/09/10 11:23:50;;;;;;;12.73;4.18;;;;;;;28.54;57.23;94489.91;4990383;28;20189;-78
2022/09/10 11:26:24;;;;;;;13.57;4.25;;;;;;;27.96;58.86;94493.19;4990197;28;20189;-77
2022/09/10 11:29:03;;;;;;;15.50;4.40;;;;;;;27.63;59.98;94512.56;4990057;28;20649;-78
2022/09/10 11:31:35;;;;;;;12.88;4.55;;;;;;;27.21;60.61;94509.78;4990620;28;20189;-78
2022/09/10 11:34:06;;;;;;;11.77;3.97;;;;;;;26.54;62.27;94500.25;4990381;28;20185;-78
2022/09/10 11:36:41;;;;;;;6.40;3.80;;;;;;;26.13;62.95;94494.41;4990547;28;20196;-78
2022/09/10 11:39:18;;;;;;;6.20;3.70;;;;;;;25.80;64.36;94504.88;4990308;28;20727;-79